createdAt,value
2023-05-25T00:00:53.492Z,100415.73
2023-05-25T00:03:34.063Z,100413.27
2023-05-25T00:06:02.756Z,100413.20
2023-05-25T00:08:30.138Z,100411.39
2023-05-25T00:10:57.715Z,100410.95
2023-05-25T00:13:25.679Z,100411.46
2023-05-25T00:15:53.298Z,100411.96
2023-05-25T00:18:21.173Z,100411.66
2023-05-25T00:20:48.736Z,100411.77
2023-05-25T00:23:16.187Z,100415.48
2023-05-25T00:25:43.602Z,100414.11
2023-05-25T00:28:11.857Z,100414.86
2023-05-25T00:30:39.531Z,100413.63
2023-05-25T00:33:07.194Z,100417.05
2023-05-25T00:35:34.536Z,100417.96
2023-05-25T00:38:01.687Z,100422.66
2023-05-25T00:40:29.136Z,100421.41
2023-05-25T00:42:57.089Z,100420.56
2023-05-25T00:45:24.843Z,100419.75
2023-05-25T00:47:54.543Z,100421.16
2023-05-25T00:50:35.424Z,100422.15
2023-05-25T00:53:03.080Z,100422.86
2023-05-25T00:55:34.945Z,100423.17
2023-05-25T00:58:05.047Z,100427.63
2023-05-25T01:00:34.428Z,100426.61
2023-05-25T01:03:02.296Z,100428.73
2023-05-25T01:05:31.123Z,100429.62
2023-05-25T01:08:03.598Z,100428.98
2023-05-25T01:10:32.877Z,100430.23
2023-05-25T01:13:01.084Z,100430.32
2023-05-25T01:15:29.728Z,100434.69
2023-05-25T01:17:59.705Z,100434.23
2023-05-25T01:20:30.164Z,100436.02
2023-05-25T01:23:01.753Z,100438.77
2023-05-25T01:25:34.580Z,100439.39
2023-05-25T01:28:08.154Z,100443.64
2023-05-25T01:30:38.055Z,100440.02
2023-05-25T01:33:06.417Z,100437.80
2023-05-25T01:35:36.707Z,100434.35
2023-05-25T01:38:04.417Z,100433.46
2023-05-25T01:40:32.014Z,100431.94
2023-05-25T01:43:01.493Z,100430.90
2023-05-25T01:45:29.353Z,100430.23
2023-05-25T01:48:08.631Z,100435.98
2023-05-25T01:50:44.577Z,100434.91
2023-05-25T01:53:20.278Z,100425.33
2023-05-25T01:55:55.130Z,100427.11
2023-05-25T01:58:23.811Z,100429.60
2023-05-25T02:00:52.912Z,100429.58
2023-05-25T02:03:21.402Z,100428.15
2023-05-25T02:05:50.211Z,100427.97
2023-05-25T02:08:17.843Z,100425.45
2023-05-25T02:10:45.130Z,100422.18
2023-05-25T02:13:12.761Z,100426.03
2023-05-25T02:15:39.885Z,100426.53
2023-05-25T02:18:08.898Z,100428.98
2023-05-25T02:20:37.586Z,100423.54
2023-05-25T02:23:05.201Z,100425.77
2023-05-25T02:25:32.332Z,100428.23
2023-05-25T02:28:00.170Z,100424.77
2023-05-25T02:30:27.827Z,100427.23
2023-05-25T02:32:55.488Z,100434.36
2023-05-25T02:35:23.386Z,100434.77
2023-05-25T02:37:52.066Z,100439.20
2023-05-25T02:40:20.314Z,100442.77
2023-05-25T02:42:47.913Z,100441.95
2023-05-25T02:45:15.706Z,100442.11
2023-05-25T02:47:42.915Z,100442.83
2023-05-25T02:50:11.595Z,100444.23
2023-05-25T02:52:43.136Z,100441.59
2023-05-25T02:55:13.434Z,100443.84
2023-05-25T02:57:41.232Z,100439.23
2023-05-25T03:00:12.487Z,100440.80
2023-05-25T03:02:40.097Z,100439.58
2023-05-25T03:05:09.084Z,100441.30
2023-05-25T03:07:36.615Z,100441.23
2023-05-25T03:10:04.072Z,100436.88
2023-05-25T03:12:33.022Z,100443.02
2023-05-25T03:15:00.400Z,100443.85
2023-05-25T03:17:27.968Z,100446.00
2023-05-25T03:19:55.207Z,100447.62
2023-05-25T03:22:22.446Z,100455.95
2023-05-25T03:24:50.385Z,100457.17
2023-05-25T03:27:17.824Z,100461.14
2023-05-25T03:29:45.626Z,100462.87
2023-05-25T03:32:14.042Z,100466.84
2023-05-25T03:34:41.540Z,100471.17
2023-05-25T03:37:12.276Z,100473.52
2023-05-25T03:39:40.120Z,100477.42
2023-05-25T03:42:08.347Z,100479.78
2023-05-25T03:44:37.255Z,100477.75
2023-05-25T03:47:06.097Z,100478.23
2023-05-25T03:49:33.406Z,100473.98
2023-05-25T03:52:01.424Z,100471.42
2023-05-25T03:54:28.665Z,100468.34
2023-05-25T03:57:12.068Z,100468.74
2023-05-25T03:59:39.645Z,100471.60
2023-05-25T04:02:07.104Z,100472.32
2023-05-25T04:04:34.770Z,100473.96
2023-05-25T04:07:03.527Z,100472.16
2023-05-25T04:09:31.086Z,100476.83
2023-05-25T04:11:58.344Z,100479.91
2023-05-25T04:14:25.727Z,100485.39
2023-05-25T04:16:53.533Z,100489.58
2023-05-25T04:19:20.616Z,100488.77
2023-05-25T04:21:48.109Z,100491.67
2023-05-25T04:24:16.234Z,100491.05
2023-05-25T04:26:43.792Z,100489.86
2023-05-25T04:29:12.268Z,100494.59
2023-05-25T04:31:59.554Z,100496.47
2023-05-25T04:34:45.177Z,100494.66
2023-05-25T04:37:18.188Z,100489.77
2023-05-25T04:39:46.266Z,100493.69
2023-05-25T04:42:13.578Z,100490.00
2023-05-25T04:44:41.145Z,100492.85
2023-05-25T04:47:10.866Z,100495.14
2023-05-25T04:49:39.025Z,100495.19
2023-05-25T04:52:09.051Z,100494.27
2023-05-25T04:54:37.121Z,100498.64
2023-05-25T04:57:05.052Z,100497.98
2023-05-25T04:59:32.644Z,100499.60
2023-05-25T05:02:01.125Z,100498.36
2023-05-25T05:04:28.380Z,100499.58
2023-05-25T05:06:58.778Z,100505.38
2023-05-25T05:09:28.105Z,100501.71
2023-05-25T05:11:57.617Z,100499.63
2023-05-25T05:14:24.799Z,100503.47
2023-05-25T05:16:53.455Z,100501.28
2023-05-25T05:19:21.739Z,100502.06
2023-05-25T05:21:52.569Z,100505.92
2023-05-25T05:24:20.713Z,100512.27
2023-05-25T05:26:58.223Z,100508.08
2023-05-25T05:29:47.942Z,100513.74
2023-05-25T05:32:15.982Z,100512.55
2023-05-25T05:34:43.648Z,100517.82
2023-05-25T05:37:22.877Z,100520.83
2023-05-25T05:39:52.919Z,100518.34
2023-05-25T05:42:20.447Z,100522.11
2023-05-25T05:44:47.770Z,100524.80
2023-05-25T05:47:15.059Z,100525.77
2023-05-25T05:49:42.718Z,100526.30
2023-05-25T05:52:11.868Z,100529.61
2023-05-25T05:54:39.692Z,100533.05
2023-05-25T05:57:11.131Z,100531.73
2023-05-25T05:59:38.318Z,100530.98
2023-05-25T06:02:07.600Z,100536.23
2023-05-25T06:04:35.693Z,100540.69
2023-05-25T06:07:03.930Z,100542.12
2023-05-25T06:09:31.082Z,100542.86
2023-05-25T06:12:00.539Z,100547.21
2023-05-25T06:14:28.947Z,100547.73
2023-05-25T06:16:58.809Z,100546.92
2023-05-25T06:19:26.544Z,100548.38
2023-05-25T06:21:54.303Z,100555.10
2023-05-25T06:24:21.760Z,100556.11
2023-05-25T06:26:49.556Z,100562.23
2023-05-25T06:29:17.580Z,100570.44
2023-05-25T06:31:44.887Z,100572.48
2023-05-25T06:34:12.722Z,100570.50
2023-05-25T06:36:41.787Z,100571.91
2023-05-25T06:39:10.403Z,100569.98
2023-05-25T06:41:41.420Z,100572.05
2023-05-25T06:44:08.614Z,100572.86
2023-05-25T06:46:46.486Z,100573.27
2023-05-25T06:49:15.582Z,100575.70
2023-05-25T06:51:43.013Z,100578.33
2023-05-25T06:54:12.071Z,100577.39
2023-05-25T06:56:39.309Z,100579.44
2023-05-25T06:59:06.659Z,100579.76
2023-05-25T07:01:34.364Z,100579.64
2023-05-25T07:04:01.718Z,100582.46
2023-05-25T07:06:28.848Z,100581.66
2023-05-25T07:08:56.711Z,100577.72
2023-05-25T07:11:23.860Z,100577.95
2023-05-25T07:13:51.002Z,100573.50
2023-05-25T07:16:18.359Z,100575.07
2023-05-25T07:18:45.594Z,100571.88
2023-05-25T07:21:12.835Z,100571.73
2023-05-25T07:23:41.256Z,100573.75
2023-05-25T07:26:08.405Z,100574.20
2023-05-25T07:28:35.616Z,100572.87
2023-05-25T07:31:02.958Z,100573.12
2023-05-25T07:33:30.111Z,100573.98
2023-05-25T07:35:57.214Z,100572.06
2023-05-25T07:38:24.543Z,100574.15
2023-05-25T07:40:52.734Z,100577.20
2023-05-25T07:43:21.176Z,100577.49
2023-05-25T07:45:48.588Z,100576.72
2023-05-25T07:48:16.326Z,100574.30
2023-05-25T07:50:43.776Z,100572.82
2023-05-25T07:53:11.325Z,100569.58
2023-05-25T07:55:38.617Z,100572.67
2023-05-25T07:58:07.613Z,100567.42
2023-05-25T08:00:34.862Z,100564.84
2023-05-25T08:03:02.877Z,100562.24
2023-05-25T08:05:30.717Z,100565.61
2023-05-25T08:07:58.092Z,100568.52
2023-05-25T08:10:31.520Z,100569.11
2023-05-25T08:12:59.637Z,100571.95
2023-05-25T08:15:27.856Z,100572.30
2023-05-25T08:17:57.195Z,100568.45
2023-05-25T08:20:26.245Z,100567.15
2023-05-25T08:22:54.830Z,100565.55
2023-05-25T08:25:22.521Z,100560.41
2023-05-25T08:27:49.958Z,100562.67
2023-05-25T08:30:17.519Z,100565.23
2023-05-25T08:32:45.444Z,100570.63
2023-05-25T08:35:14.451Z,100570.76
2023-05-25T08:37:43.740Z,100569.73
2023-05-25T08:40:17.631Z,100568.35
2023-05-25T08:42:46.114Z,100562.85
2023-05-25T08:45:26.383Z,100559.59
2023-05-25T08:48:02.811Z,100559.46
2023-05-25T08:50:32.556Z,100556.54
2023-05-25T08:53:03.306Z,100555.44
2023-05-25T08:55:36.554Z,100560.23
2023-05-25T08:58:08.447Z,100561.70
2023-05-25T09:00:40.087Z,100558.54
2023-05-25T09:03:12.993Z,100553.68
2023-05-25T09:05:42.152Z,100553.67
2023-05-25T09:08:10.502Z,100552.13
2023-05-25T09:10:38.506Z,100557.98
2023-05-25T09:13:20.544Z,100563.12
2023-05-25T09:15:49.177Z,100560.68
2023-05-25T09:18:16.281Z,100564.27
2023-05-25T09:20:46.233Z,100562.60
2023-05-25T09:23:14.513Z,100564.45
2023-05-25T09:25:43.976Z,100561.73
2023-05-25T09:30:42.793Z,100564.89
2023-05-25T09:33:14.297Z,100560.67
2023-05-25T09:35:42.600Z,100555.67
2023-05-25T09:38:10.286Z,100559.70
2023-05-25T09:40:39.376Z,100558.61
2023-05-25T09:43:06.834Z,100558.09
2023-05-25T09:45:35.136Z,100566.72
2023-05-25T09:48:04.025Z,100566.54
2023-05-25T09:50:32.650Z,100566.71
2023-05-25T09:53:02.320Z,100574.52
2023-05-25T09:55:40.321Z,100581.80
2023-05-25T09:58:18.336Z,100577.48
2023-05-25T10:00:46.806Z,100576.44
2023-05-25T10:03:15.575Z,100579.59
2023-05-25T10:05:42.960Z,100573.19
2023-05-25T10:08:11.961Z,100576.05
2023-05-25T10:10:40.196Z,100574.38
2023-05-25T10:13:11.389Z,100574.77
2023-05-25T10:15:41.858Z,100581.05
2023-05-25T10:18:10.557Z,100578.52
2023-05-25T10:20:39.420Z,100575.45
2023-05-25T10:23:11.250Z,100576.87
2023-05-25T10:25:45.423Z,100572.60
2023-05-25T10:28:16.713Z,100571.51
2023-05-25T10:30:44.387Z,100571.79
2023-05-25T10:33:13.602Z,100574.27
2023-05-25T10:36:01.691Z,100573.98
2023-05-25T10:38:31.813Z,100568.54
2023-05-25T10:40:59.653Z,100571.15
2023-05-25T10:43:27.789Z,100563.83
2023-05-25T10:45:56.189Z,100562.25
2023-05-25T10:48:24.909Z,100555.36
2023-05-25T10:50:54.299Z,100558.10
2023-05-25T10:53:23.287Z,100557.17
2023-05-25T10:56:05.633Z,100559.00
2023-05-25T10:58:34.443Z,100555.64
2023-05-25T11:01:03.509Z,100552.92
2023-05-25T11:03:51.852Z,100554.67
2023-05-25T11:06:21.669Z,100555.27
2023-05-25T11:08:59.198Z,100555.38
2023-05-25T11:12:06.650Z,100550.22
2023-05-25T11:14:37.309Z,100545.13
2023-05-25T11:17:13.110Z,100542.39
2023-05-25T11:19:46.277Z,100541.28
2023-05-25T11:22:20.791Z,100541.11
2023-05-25T11:24:48.225Z,100536.43
2023-05-25T11:27:15.675Z,100533.70
2023-05-25T11:29:42.976Z,100533.30
2023-05-25T11:32:15.520Z,100530.73
2023-05-25T11:34:46.940Z,100529.02
2023-05-25T11:37:16.181Z,100528.17
2023-05-25T11:39:44.109Z,100523.75
2023-05-25T11:42:12.467Z,100521.38
2023-05-25T11:44:39.745Z,100518.55
2023-05-25T11:47:09.995Z,100516.44
2023-05-25T11:49:40.217Z,100516.05
2023-05-25T11:52:09.711Z,100510.36
2023-05-25T11:54:37.791Z,100510.11
2023-05-25T11:57:05.150Z,100506.02
2023-05-25T11:59:33.642Z,100506.88
2023-05-25T12:02:05.276Z,100510.25
2023-05-25T12:04:34.299Z,100507.33
2023-05-25T12:07:09.096Z,100505.20
2023-05-25T12:09:38.007Z,100504.53
2023-05-25T12:12:06.712Z,100497.33
2023-05-25T12:14:37.516Z,100496.06
2023-05-25T12:17:04.927Z,100493.65
2023-05-25T12:19:32.468Z,100497.70
2023-05-25T12:22:00.120Z,100495.92
2023-05-25T12:24:27.542Z,100495.86
2023-05-25T12:26:57.666Z,100492.46
2023-05-25T12:29:25.561Z,100497.66
2023-05-25T12:31:53.102Z,100496.63
2023-05-25T12:34:21.569Z,100496.74
2023-05-25T12:36:52.964Z,100489.98
2023-05-25T12:39:35.149Z,100486.46
2023-05-25T12:42:03.919Z,100489.41
2023-05-25T12:44:32.710Z,100486.91
2023-05-25T12:47:13.174Z,100481.30
2023-05-25T12:49:41.756Z,100475.58
2023-05-25T12:52:10.228Z,100469.42
2023-05-25T12:54:41.093Z,100467.58
2023-05-25T12:57:09.347Z,100464.52
2023-05-25T12:59:37.484Z,100462.63
2023-05-25T13:02:06.542Z,100464.35
2023-05-25T13:04:33.861Z,100468.30
2023-05-25T13:07:01.748Z,100467.91
2023-05-25T13:09:29.549Z,100466.34
2023-05-25T13:11:57.757Z,100458.86
2023-05-25T13:14:25.492Z,100455.54
2023-05-25T13:16:54.065Z,100449.02
2023-05-25T13:19:23.111Z,100449.13
2023-05-25T13:21:51.930Z,100444.57
2023-05-25T13:24:19.804Z,100444.90
2023-05-25T13:26:49.159Z,100442.80
2023-05-25T13:29:17.989Z,100439.27
2023-05-25T13:31:45.418Z,100437.33
2023-05-25T13:34:12.698Z,100437.27
2023-05-25T13:36:39.921Z,100438.19
2023-05-25T13:39:07.592Z,100437.42
2023-05-25T13:41:35.069Z,100432.20
2023-05-25T13:44:02.806Z,100435.40
2023-05-25T13:46:35.280Z,100432.42
2023-05-25T13:49:02.866Z,100426.77
2023-05-25T13:51:30.128Z,100426.31
2023-05-25T13:53:57.535Z,100427.77
2023-05-25T13:56:24.635Z,100421.36
2023-05-25T13:58:52.061Z,100425.13
2023-05-25T14:01:19.395Z,100420.70
2023-05-25T14:03:47.088Z,100422.18
2023-05-25T14:06:14.736Z,100417.48
2023-05-25T14:08:41.988Z,100419.33
2023-05-25T14:11:09.500Z,100416.28
2023-05-25T14:13:37.075Z,100424.01
2023-05-25T14:16:04.666Z,100421.30
2023-05-25T14:18:31.849Z,100424.73
2023-05-25T14:20:59.623Z,100420.90
2023-05-25T14:23:26.779Z,100423.05
2023-05-25T14:25:54.036Z,100419.09
2023-05-25T14:28:21.303Z,100417.76
2023-05-25T14:30:48.679Z,100414.90
2023-05-25T14:33:17.361Z,100417.27
2023-05-25T14:35:45.022Z,100418.36
2023-05-25T14:38:12.512Z,100418.11
2023-05-25T14:40:39.589Z,100416.21
2023-05-25T14:43:06.936Z,100420.26
2023-05-25T14:45:34.286Z,100418.70
2023-05-25T14:48:15.276Z,100419.48
2023-05-25T14:50:44.768Z,100418.59
2023-05-25T14:53:12.311Z,100415.23
2023-05-25T14:55:41.007Z,100414.42
2023-05-25T14:58:08.304Z,100413.98
2023-05-25T15:00:35.410Z,100414.54
2023-05-25T15:03:03.140Z,100414.39
2023-05-25T15:05:30.625Z,100416.20
2023-05-25T15:07:59.193Z,100412.61
2023-05-25T15:10:26.890Z,100415.27
2023-05-25T15:12:54.002Z,100414.67
2023-05-25T15:15:21.156Z,100415.32
2023-05-25T15:17:48.264Z,100413.77
2023-05-25T15:20:15.793Z,100410.34
2023-05-25T15:22:42.975Z,100411.38
2023-05-25T15:25:10.526Z,100412.09
2023-05-25T15:27:37.624Z,100409.39
2023-05-25T15:30:07.402Z,100405.52
2023-05-25T15:32:34.594Z,100405.73
2023-05-25T15:35:01.812Z,100406.04
2023-05-25T15:37:28.923Z,100403.30
2023-05-25T15:39:56.476Z,100404.05
2023-05-25T15:42:23.661Z,100404.74
2023-05-25T15:44:51.059Z,100403.96
2023-05-25T15:47:18.353Z,100403.90
2023-05-25T15:49:45.529Z,100401.40
2023-05-25T15:52:12.703Z,100403.03
2023-05-25T15:54:39.828Z,100401.28
2023-05-25T15:57:07.656Z,100400.89
2023-05-25T15:59:34.874Z,100402.16
2023-05-25T16:02:02.057Z,100408.39
2023-05-25T16:04:29.276Z,100408.11
2023-05-25T16:06:56.338Z,100408.44
2023-05-25T16:09:23.485Z,100403.06
2023-05-25T16:11:51.539Z,100407.52
2023-05-25T16:14:18.812Z,100403.75
2023-05-25T16:16:46.046Z,100405.98
2023-05-25T16:19:14.198Z,100403.34
2023-05-25T16:21:41.764Z,100408.26
2023-05-25T16:24:09.527Z,100409.16
2023-05-25T16:26:36.710Z,100408.42
2023-05-25T16:29:04.074Z,100405.88
2023-05-25T16:31:31.272Z,100406.50
2023-05-25T16:33:58.452Z,100406.86
2023-05-25T16:36:26.829Z,100404.40
2023-05-25T16:38:54.077Z,100402.64
2023-05-25T16:41:21.204Z,100408.27
2023-05-25T16:43:48.609Z,100409.39
2023-05-25T16:46:15.746Z,100407.36
2023-05-25T16:48:42.924Z,100405.54
2023-05-25T16:51:15.209Z,100402.50
2023-05-25T16:53:43.862Z,100405.00
2023-05-25T16:56:11.237Z,100400.61
2023-05-25T16:58:38.422Z,100400.14
2023-05-25T17:01:05.672Z,100399.72
2023-05-25T17:03:33.090Z,100400.43
2023-05-25T17:06:00.474Z,100401.73
2023-05-25T17:08:28.038Z,100403.95
2023-05-25T17:10:55.354Z,100407.16
2023-05-25T17:13:22.983Z,100409.50
2023-05-25T17:15:50.431Z,100409.30
2023-05-25T17:18:18.008Z,100406.17
2023-05-25T17:20:45.408Z,100406.01
2023-05-25T17:23:12.712Z,100405.34
2023-05-25T17:25:40.707Z,100405.56
2023-05-25T17:28:08.399Z,100410.02
2023-05-25T17:30:35.564Z,100413.23
2023-05-25T17:33:02.913Z,100413.45
2023-05-25T17:35:30.413Z,100416.02
2023-05-25T17:37:57.898Z,100412.08
2023-05-25T17:40:25.267Z,100413.81
2023-05-25T17:42:52.448Z,100412.54
2023-05-25T17:45:19.645Z,100412.93
2023-05-25T17:47:46.807Z,100409.41
2023-05-25T17:50:14.308Z,100410.06
2023-05-25T17:52:42.756Z,100411.66
2023-05-25T17:55:10.830Z,100410.98
2023-05-25T17:57:38.020Z,100412.23
2023-05-25T18:00:08.516Z,100410.89
2023-05-25T18:02:44.859Z,100415.19
2023-05-25T18:05:12.154Z,100418.90
2023-05-25T18:07:39.310Z,100421.73
2023-05-25T18:10:07.079Z,100419.24
2023-05-25T18:12:34.317Z,100421.94
2023-05-25T18:15:01.558Z,100420.66
2023-05-25T18:17:28.682Z,100421.30
2023-05-25T18:19:55.967Z,100423.90
2023-05-25T18:22:23.346Z,100424.14
2023-05-25T18:24:50.749Z,100423.64
2023-05-25T18:27:17.878Z,100424.91
2023-05-25T18:29:45.071Z,100428.46
2023-05-25T18:32:12.158Z,100434.98
2023-05-25T18:34:39.264Z,100437.63
2023-05-25T18:37:06.713Z,100433.95
2023-05-25T18:39:33.946Z,100439.69
2023-05-25T18:42:01.745Z,100441.45
2023-05-25T18:44:29.099Z,100447.45
2023-05-25T18:46:57.021Z,100452.89
2023-05-25T18:49:24.712Z,100454.95
2023-05-25T18:51:51.972Z,100456.80
2023-05-25T18:54:19.140Z,100457.45
2023-05-25T18:56:46.518Z,100453.86
2023-05-25T18:59:13.852Z,100456.17
2023-05-25T19:01:41.036Z,100454.46
2023-05-25T19:04:08.484Z,100455.36
2023-05-25T19:06:36.270Z,100453.61
2023-05-25T19:09:05.027Z,100457.27
2023-05-25T19:11:32.334Z,100459.97
2023-05-25T19:13:59.964Z,100462.27
2023-05-25T19:16:27.501Z,100464.59
2023-05-25T19:18:55.065Z,100462.82
2023-05-25T19:21:22.361Z,100469.83
2023-05-25T19:23:50.327Z,100466.70
2023-05-25T19:26:18.025Z,100467.97
2023-05-25T19:28:45.179Z,100468.35
2023-05-25T19:31:12.601Z,100467.25
2023-05-25T19:33:39.796Z,100464.39
2023-05-25T19:36:07.518Z,100470.52
2023-05-25T19:38:41.100Z,100472.02
2023-05-25T19:41:09.678Z,100471.69
2023-05-25T19:43:37.453Z,100477.30
2023-05-25T19:46:05.183Z,100475.84
2023-05-25T19:48:32.457Z,100480.18
2023-05-25T19:51:01.186Z,100482.27
2023-05-25T19:53:29.034Z,100481.73
2023-05-25T19:55:56.308Z,100478.39
2023-05-25T19:58:23.526Z,100480.40
2023-05-25T20:00:51.006Z,100476.50
2023-05-25T20:03:18.748Z,100475.50
2023-05-25T20:05:46.556Z,100475.46
2023-05-25T20:08:14.106Z,100478.44
2023-05-25T20:10:42.468Z,100475.77
2023-05-25T20:13:10.217Z,100475.56
2023-05-25T20:15:37.585Z,100474.09
2023-05-25T20:18:04.981Z,100472.45
2023-05-25T20:20:32.356Z,100472.35
2023-05-25T20:22:59.766Z,100474.27
2023-05-25T20:25:27.070Z,100474.45
2023-05-25T20:27:54.626Z,100470.45
2023-05-25T20:30:22.289Z,100472.02
2023-05-25T20:32:49.449Z,100471.81
2023-05-25T20:35:17.239Z,100472.45
2023-05-25T20:37:44.369Z,100472.94
2023-05-25T20:40:12.404Z,100477.60
2023-05-25T20:42:39.587Z,100482.81
2023-05-25T20:45:07.851Z,100487.02
2023-05-25T20:47:35.092Z,100487.23
2023-05-25T20:50:02.353Z,100483.96
2023-05-25T20:52:29.594Z,100484.38
2023-05-25T20:54:56.738Z,100490.41
2023-05-25T20:57:27.032Z,100496.35
2023-05-25T20:59:59.706Z,100494.89
2023-05-25T21:02:27.082Z,100493.98
2023-05-25T21:04:54.842Z,100495.53
2023-05-25T21:07:21.957Z,100497.83
2023-05-25T21:09:49.414Z,100498.13
2023-05-25T21:12:16.954Z,100500.61
2023-05-25T21:14:44.100Z,100501.58
2023-05-25T21:17:11.227Z,100510.13
2023-05-25T21:19:38.378Z,100514.15
2023-05-25T21:22:06.005Z,100512.27
2023-05-25T21:24:33.354Z,100509.43
2023-05-25T21:27:01.619Z,100508.95
2023-05-25T21:29:28.739Z,100509.30
2023-05-25T21:31:55.930Z,100510.32
2023-05-25T21:34:23.291Z,100511.67
2023-05-25T21:36:50.724Z,100511.97
2023-05-25T21:39:20.049Z,100512.42
2023-05-25T21:41:47.558Z,100513.76
2023-05-25T21:44:14.644Z,100521.56
2023-05-25T21:46:41.737Z,100520.77
2023-05-25T21:49:08.867Z,100523.71
2023-05-25T21:51:36.570Z,100523.02
2023-05-25T21:54:03.747Z,100522.77
2023-05-25T21:56:30.694Z,100521.87
2023-05-25T21:58:57.810Z,100522.98
2023-05-25T22:01:25.473Z,100520.80
2023-05-25T22:03:52.410Z,100519.55
2023-05-25T22:06:19.526Z,100521.58
2023-05-25T22:08:46.779Z,100521.42
2023-05-25T22:11:13.723Z,100525.25
2023-05-25T22:13:40.682Z,100521.69
2023-05-25T22:16:08.100Z,100518.20
2023-05-25T22:18:37.074Z,100516.71
2023-05-25T22:21:05.504Z,100518.52
2023-05-25T22:23:32.398Z,100517.88
2023-05-25T22:25:59.375Z,100520.38
2023-05-25T22:28:26.641Z,100524.14
2023-05-25T22:30:53.727Z,100524.47
2023-05-25T22:33:20.726Z,100531.48
2023-05-25T22:35:47.938Z,100534.38
2023-05-25T22:38:15.640Z,100531.08
2023-05-25T22:40:47.502Z,100531.95
2023-05-25T22:43:14.779Z,100534.21
2023-05-25T22:45:42.744Z,100537.86
2023-05-25T22:48:10.413Z,100541.77
2023-05-25T22:50:37.472Z,100538.68
2023-05-25T22:53:07.024Z,100543.34
2023-05-25T22:55:33.882Z,100543.35
2023-05-25T22:58:00.978Z,100547.54
2023-05-25T23:00:28.229Z,100546.95
2023-05-25T23:02:59.073Z,100547.61
2023-05-25T23:05:27.441Z,100545.40
2023-05-25T23:07:54.435Z,100540.70
2023-05-25T23:10:21.590Z,100539.79
2023-05-25T23:12:48.692Z,100540.19
2023-05-25T23:15:18.393Z,100539.09
2023-05-25T23:17:45.516Z,100535.16
2023-05-25T23:20:15.077Z,100539.52
2023-05-25T23:22:43.148Z,100546.02
2023-05-25T23:25:11.390Z,100543.62
2023-05-25T23:27:38.658Z,100545.75
2023-05-25T23:30:08.886Z,100547.41
2023-05-25T23:32:36.244Z,100545.33
2023-05-25T23:35:03.388Z,100548.60
2023-05-25T23:37:30.286Z,100550.75
2023-05-25T23:39:57.870Z,100553.48
2023-05-25T23:42:24.937Z,100554.38
2023-05-25T23:44:51.916Z,100555.79
2023-05-25T23:47:18.827Z,100555.02
2023-05-25T23:49:46.123Z,100557.33
2023-05-25T23:52:13.015Z,100557.23
2023-05-25T23:54:39.881Z,100557.58
2023-05-25T23:57:07.453Z,100558.10
2023-05-25T23:59:34.312Z,100555.48
